Time;durP1;ratioP1;P1;durP2;ratioP2;P2;SDS_P1;SDS_P2;PMS_P1;PMS_P2;Temp;Humidity;BMP_temperature;BMP_pressure;BME280_temperature;BME280_humidity;BME280_pressure;Samples;Min_cycle;Max_cycle;Signal;HPM_P1;HPM_P2
2024/04/08 00:00:42;;;;;;;7.28;2.03;;;;;;;10.21;100.00;101201.78;4974766;28;20126;-76
2024/04/08 00:03:07;;;;;;;5.45;1.98;;;;;;;10.16;100.00;101203.94;4974616;28;20536;-77
2024/04/08 00:05:33;;;;;;;13.80;2.05;;;;;;;10.13;100.00;101182.09;4974685;28;20035;-77
2024/04/08 00:07:58;;;;;;;8.00;2.15;;;;;;;10.11;100.00;101186.72;4974617;28;20042;-83
2024/04/08 00:10:24;;;;;;;11.75;2.25;;;;;;;10.10;100.00;101175.22;4974780;28;20456;-77
2024/04/08 00:12:49;;;;;;;8.55;2.42;;;;;;;10.10;100.00;101180.53;4975008;28;20041;-77
2024/04/08 00:15:15;;;;;;;8.13;2.42;;;;;;;10.11;100.00;101182.22;4974447;28;20022;-76
2024/04/08 00:17:41;;;;;;;9.90;2.47;;;;;;;10.12;100.00;101172.44;4974059;28;20027;-76
2024/04/08 00:20:07;;;;;;;9.75;2.03;;;;;;;10.16;100.00;101174.69;4974592;28;20035;-77
2024/04/08 00:22:33;;;;;;;9.55;2.10;;;;;;;10.20;100.00;101165.50;4974456;28;20035;-76
2024/04/08 00:24:58;;;;;;;11.15;2.33;;;;;;;10.25;100.00;101165.13;4974899;28;20467;-77
2024/04/08 00:27:24;;;;;;;13.20;2.50;;;;;;;10.27;100.00;101163.19;4974253;28;20035;-77
2024/04/08 00:29:49;;;;;;;7.90;1.77;;;;;;;10.27;100.00;101168.50;4974380;28;20031;-77
2024/04/08 00:32:14;;;;;;;9.88;2.08;;;;;;;10.28;100.00;101158.69;4973255;28;20038;-77
2024/04/08 00:34:40;;;;;;;9.18;2.28;;;;;;;10.29;100.00;101160.41;4974278;28;20034;-77
2024/04/08 00:37:06;;;;;;;7.45;1.90;;;;;;;10.31;100.00;101163.75;4973304;28;20035;-75
2024/04/08 00:39:32;;;;;;;9.40;2.60;;;;;;;10.31;100.00;101167.25;4974281;28;20432;-75
2024/04/08 00:41:58;;;;;;;9.07;2.15;;;;;;;10.31;100.00;101169.91;4974686;28;20034;-75
2024/04/08 00:44:24;;;;;;;8.45;2.03;;;;;;;10.31;100.00;101174.41;4974123;28;20073;-75
2024/04/08 00:46:49;;;;;;;7.13;1.88;;;;;;;10.27;100.00;101171.16;4974102;28;20035;-75
2024/04/08 00:49:15;;;;;;;8.50;2.03;;;;;;;10.26;100.00;101163.31;4974805;28;20038;-75
2024/04/08 00:51:44;;;;;;;10.88;2.10;;;;;;;10.23;100.00;101159.94;4973866;28;20141;-75
2024/04/08 00:54:10;;;;;;;8.77;2.30;;;;;;;10.23;100.00;101164.41;4974204;28;20065;-75
2024/04/08 00:56:40;;;;;;;7.03;1.98;;;;;;;10.20;100.00;101160.19;4974238;28;20134;-75
2024/04/08 00:59:08;;;;;;;10.43;2.13;;;;;;;10.20;100.00;101165.50;4973916;28;20030;-75
2024/04/08 01:01:33;;;;;;;10.13;2.20;;;;;;;10.22;100.00;101163.53;4973895;28;20059;-74
2024/04/08 01:03:59;;;;;;;7.60;2.10;;;;;;;10.22;100.00;101163.53;4973702;28;20062;-75
2024/04/08 01:06:24;;;;;;;11.32;2.42;;;;;;;10.25;100.00;101162.44;4973788;28;20114;-76
2024/04/08 01:08:50;;;;;;;10.93;2.15;;;;;;;10.26;100.00;101158.84;4974217;28;20043;-75
2024/04/08 01:11:16;;;;;;;12.13;3.40;;;;;;;10.23;100.00;101162.59;4974252;28;20063;-75
2024/04/08 01:13:41;;;;;;;13.20;3.03;;;;;;;10.20;100.00;101168.16;4972700;28;20046;-74
2024/04/08 01:16:07;;;;;;;16.02;3.05;;;;;;;10.17;100.00;101162.28;4973684;28;20041;-75
2024/04/08 01:18:33;;;;;;;8.13;2.15;;;;;;;10.12;100.00;101165.31;4972778;28;20066;-74
2024/04/08 01:20:59;;;;;;;7.05;2.17;;;;;;;10.07;100.00;101159.53;4973855;28;20081;-74
2024/04/08 01:23:25;;;;;;;10.25;2.10;;;;;;;10.02;100.00;101159.06;4974222;28;20459;-74
2024/04/08 01:25:50;;;;;;;11.13;2.65;;;;;;;9.97;100.00;101145.31;4973811;28;20042;-74
2024/04/08 01:28:16;;;;;;;8.05;1.77;;;;;;;9.88;100.00;101149.56;4973787;28;20034;-75
2024/04/08 01:30:42;;;;;;;12.35;2.22;;;;;;;9.79;100.00;101145.88;4974300;28;20034;-74
2024/04/08 01:33:08;;;;;;;9.55;2.28;;;;;;;9.71;100.00;101143.00;4974038;28;20033;-74
2024/04/08 01:35:33;;;;;;;12.18;2.40;;;;;;;9.64;100.00;101137.34;4973569;28;20491;-74
2024/04/08 01:37:59;;;;;;;14.60;2.33;;;;;;;9.57;100.00;101135.31;4973567;28;20117;-77
2024/04/08 01:40:24;;;;;;;8.00;1.80;;;;;;;9.55;100.00;101139.91;4972340;28;20463;-77
2024/04/08 01:42:49;;;;;;;10.05;2.55;;;;;;;9.55;100.00;101132.78;4973916;28;20038;-77
2024/04/08 01:45:15;;;;;;;8.38;2.45;;;;;;;9.61;100.00;101139.41;4973750;28;20545;-76
2024/04/08 01:47:40;;;;;;;10.15;2.00;;;;;;;9.64;100.00;101137.34;4973578;28;20049;-77
2024/04/08 01:50:06;;;;;;;11.95;1.92;;;;;;;9.68;100.00;101132.63;4977473;28;20034;-76
2024/04/08 01:52:31;;;;;;;8.18;2.03;;;;;;;9.71;100.00;101127.06;4977047;28;20057;-76
2024/04/08 01:54:56;;;;;;;9.90;1.92;;;;;;;9.68;100.00;101120.16;4977013;28;20030;-77
2024/04/08 01:57:22;;;;;;;9.63;1.92;;;;;;;9.67;100.00;101129.13;4976699;28;20431;-74
2024/04/08 01:59:47;;;;;;;12.20;2.00;;;;;;;9.66;100.00;101130.09;4976923;28;20583;-74
2024/04/08 02:02:12;;;;;;;7.15;2.15;;;;;;;9.65;100.00;101133.72;4977606;28;20417;-74
2024/04/08 02:04:38;;;;;;;10.57;2.35;;;;;;;9.65;100.00;101127.56;4976859;28;20126;-76
2024/04/08 02:07:03;;;;;;;9.68;2.05;;;;;;;9.69;100.00;101121.88;4976587;28;20510;-76
2024/04/08 02:09:29;;;;;;;15.10;2.40;;;;;;;9.74;100.00;101131.28;4976707;28;20384;-76
2024/04/08 02:11:54;;;;;;;6.43;1.77;;;;;;;9.78;100.00;101120.25;4976837;28;20109;-76
2024/04/08 02:14:19;;;;;;;11.10;1.63;;;;;;;9.85;100.00;101128.56;4976397;28;20121;-77
2024/04/08 02:16:45;;;;;;;8.98;2.13;;;;;;;9.92;100.00;101134.22;4976505;28;20541;-76
2024/04/08 02:19:10;;;;;;;9.07;2.00;;;;;;;9.96;100.00;101125.88;4976632;28;20043;-76
2024/04/08 02:21:35;;;;;;;9.57;2.03;;;;;;;10.00;100.00;101129.97;4976865;28;20030;-76
2024/04/08 02:24:01;;;;;;;9.52;2.03;;;;;;;10.03;100.00;101128.84;4976577;28;20035;-76
2024/04/08 02:26:26;;;;;;;9.05;1.88;;;;;;;10.06;100.00;101125.91;4976504;28;20038;-75
2024/04/08 02:28:52;;;;;;;10.38;1.80;;;;;;;10.08;100.00;101124.00;4976410;28;20043;-74
2024/04/08 02:31:18;;;;;;;11.30;2.72;;;;;;;10.08;100.00;101126.66;4976419;28;20038;-74
2024/04/08 02:33:45;;;;;;;10.20;2.15;;;;;;;10.10;100.00;101126.53;4976250;28;20093;-77
2024/04/08 02:36:10;;;;;;;11.05;2.55;;;;;;;10.09;100.00;101112.41;4976712;28;20022;-76
2024/04/08 02:38:36;;;;;;;12.45;2.00;;;;;;;10.05;100.00;101103.81;4976201;28;20066;-74
2024/04/08 02:41:01;;;;;;;11.65;2.30;;;;;;;9.97;100.00;101094.81;4976810;28;20328;-76
2024/04/08 02:43:26;;;;;;;9.82;2.00;;;;;;;9.85;100.00;101097.53;4976103;28;20035;-76
2024/04/08 02:45:52;;;;;;;9.57;2.38;;;;;;;9.70;100.00;101094.34;4975905;28;20506;-76
2024/04/08 02:48:19;;;;;;;9.07;2.22;;;;;;;9.56;100.00;101110.56;4976139;28;20046;-77
2024/04/08 02:50:45;;;;;;;8.30;1.92;;;;;;;9.45;100.00;101108.78;4975726;28;20062;-77
2024/04/08 02:53:11;;;;;;;8.75;1.98;;;;;;;9.40;100.00;101110.13;4975997;28;20047;-75
2024/04/08 02:55:39;;;;;;;11.32;2.42;;;;;;;9.38;100.00;101112.91;4975826;28;20054;-74
2024/04/08 02:58:04;;;;;;;9.68;1.80;;;;;;;9.37;100.00;101107.72;4976049;28;20031;-76
2024/04/08 03:00:30;;;;;;;8.93;1.95;;;;;;;9.39;100.00;101111.09;4974945;28;20070;-76
2024/04/08 03:02:56;;;;;;;9.73;2.17;;;;;;;9.41;100.00;101101.19;4976107;28;20033;-76
2024/04/08 03:05:21;;;;;;;7.97;1.88;;;;;;;9.43;100.00;101094.78;4975562;28;20455;-76
2024/04/08 03:07:46;;;;;;;9.27;2.13;;;;;;;9.44;100.00;101091.16;4976248;28;20046;-75
2024/04/08 03:10:12;;;;;;;8.27;2.15;;;;;;;9.42;100.00;101094.91;4975395;28;20514;-76
2024/04/08 03:12:37;;;;;;;7.40;2.00;;;;;;;9.38;100.00;101086.34;4975685;28;20113;-76
2024/04/08 03:15:03;;;;;;;13.77;2.33;;;;;;;9.37;100.00;101084.66;4975391;28;20037;-74
2024/04/08 03:17:28;;;;;;;11.60;2.00;;;;;;;9.33;100.00;101089.38;4974986;28;20038;-76
2024/04/08 03:19:55;;;;;;;13.73;2.65;;;;;;;9.30;100.00;101088.78;4975572;28;20054;-76
2024/04/08 03:22:21;;;;;;;12.70;2.15;;;;;;;9.28;100.00;101080.94;4975580;28;20121;-76
2024/04/08 03:24:46;;;;;;;6.38;1.83;;;;;;;9.26;100.00;101071.44;4975375;28;20030;-75
2024/04/08 03:27:11;;;;;;;10.23;2.05;;;;;;;9.22;100.00;101070.81;4975608;28;20518;-76
2024/04/08 03:29:36;;;;;;;9.52;2.10;;;;;;;9.14;100.00;101067.94;4975330;28;20395;-76
2024/04/08 03:32:02;;;;;;;11.35;2.35;;;;;;;9.04;100.00;101057.22;4975834;28;20114;-76
2024/04/08 03:34:27;;;;;;;7.28;1.95;;;;;;;8.93;100.00;101060.75;4974051;28;20035;-76
2024/04/08 03:36:53;;;;;;;13.75;2.47;;;;;;;8.80;100.00;101055.56;4975067;28;20037;-76
2024/04/08 03:39:18;;;;;;;9.20;3.00;;;;;;;8.71;100.00;101060.78;4975365;28;20027;-76
2024/04/08 03:41:44;;;;;;;7.93;2.33;;;;;;;8.62;100.00;101060.53;4975320;28;20038;-76
2024/04/08 03:44:09;;;;;;;7.78;2.22;;;;;;;8.56;100.00;101063.66;4975106;28;20431;-76
2024/04/08 03:46:35;;;;;;;9.40;2.08;;;;;;;8.52;100.00;101056.91;4974871;28;20031;-76
2024/04/08 03:49:02;;;;;;;13.80;2.60;;;;;;;8.46;100.00;101047.63;4974704;28;20069;-76
2024/04/08 03:51:28;;;;;;;5.88;2.08;;;;;;;8.42;100.00;101042.63;4975127;28;20472;-76
2024/04/08 03:53:53;;;;;;;8.05;2.70;;;;;;;8.38;100.00;101041.22;4974687;28;20069;-76
2024/04/08 03:56:18;;;;;;;7.65;2.15;;;;;;;8.29;100.00;101040.94;4974729;28;20054;-76
2024/04/08 03:58:44;;;;;;;11.43;1.95;;;;;;;8.23;100.00;101036.13;4974819;28;20034;-76
2024/04/08 04:01:12;;;;;;;5.68;2.00;;;;;;;8.18;100.00;101032.13;4974819;28;20468;-76
2024/04/08 04:03:37;;;;;;;6.70;2.05;;;;;;;8.15;100.00;101035.91;4974939;28;20110;-76
2024/04/08 04:06:03;;;;;;;8.50;2.45;;;;;;;8.13;100.00;101029.84;4975108;28;20054;-76
2024/04/08 04:08:29;;;;;;;7.68;2.30;;;;;;;8.16;100.00;101042.88;4974338;28;20039;-76
2024/04/08 04:10:55;;;;;;;12.43;2.45;;;;;;;8.26;100.00;101056.25;4974466;28;20085;-76
2024/04/08 04:13:21;;;;;;;13.55;2.67;;;;;;;8.38;100.00;101049.16;4974607;28;20038;-76
2024/04/08 04:15:46;;;;;;;14.95;2.83;;;;;;;8.51;100.00;101049.06;4974999;28;20031;-76
2024/04/08 04:18:11;;;;;;;12.05;2.30;;;;;;;8.62;100.00;101044.59;4974433;28;20422;-76
2024/04/08 04:20:42;;;;;;;8.68;2.60;;;;;;;8.70;100.00;101046.66;4974478;28;20031;-76
2024/04/08 04:23:10;;;;;;;11.40;2.60;;;;;;;8.80;100.00;101057.38;4974393;28;20042;-76
2024/04/08 04:25:36;;;;;;;13.65;3.85;;;;;;;8.92;100.00;101068.81;4973447;28;20464;-81
2024/04/08 04:28:02;;;;;;;10.57;2.63;;;;;;;9.02;100.00;101055.66;4974365;28;20035;-76
2024/04/08 04:30:28;;;;;;;14.05;3.55;;;;;;;9.10;100.00;101067.34;4957025;28;20039;-76
2024/04/08 04:32:56;;;;;;;9.38;3.22;;;;;;;9.20;100.00;101074.59;4974244;28;20034;-76
2024/04/08 04:35:21;;;;;;;10.63;3.65;;;;;;;9.28;100.00;101094.22;4974286;28;20038;-76
2024/04/08 04:37:47;;;;;;;11.95;3.00;;;;;;;9.35;100.00;101095.41;4974271;28;20035;-76
2024/04/08 04:40:12;;;;;;;10.38;3.33;;;;;;;9.48;100.00;101097.91;4974452;28;20034;-76
2024/04/08 04:42:37;;;;;;;9.43;2.90;;;;;;;9.63;100.00;101093.16;4973902;28;20043;-76
2024/04/08 04:45:04;;;;;;;16.55;3.10;;;;;;;9.74;100.00;101091.41;4973834;28;20026;-76
2024/04/08 04:47:29;;;;;;;9.30;3.65;;;;;;;9.81;100.00;101087.28;4974440;28;20043;-76
2024/04/08 04:49:55;;;;;;;10.00;3.25;;;;;;;9.88;100.00;101085.78;4974316;28;20038;-76
2024/04/08 04:52:20;;;;;;;8.75;3.00;;;;;;;9.94;100.00;101105.69;4974158;28;20059;-76
2024/04/08 04:54:45;;;;;;;13.95;3.70;;;;;;;9.98;100.00;101109.78;4974024;28;20181;-77
2024/04/08 04:57:11;;;;;;;16.13;4.15;;;;;;;10.02;100.00;101106.75;4975072;28;20061;-77
2024/04/08 04:59:36;;;;;;;13.75;4.20;;;;;;;10.07;100.00;101111.66;4974008;28;20050;-76
2024/04/08 05:02:01;;;;;;;9.70;4.75;;;;;;;10.12;100.00;101120.13;4974071;28;20043;-76
2024/04/08 05:04:27;;;;;;;10.50;5.03;;;;;;;10.14;100.00;101112.84;4974246;28;20060;-76
2024/04/08 05:06:52;;;;;;;10.40;5.80;;;;;;;10.16;100.00;101113.53;4974431;28;20043;-76
2024/04/08 05:09:17;;;;;;;11.73;5.60;;;;;;;10.13;100.00;101112.97;4974169;28;20038;-75
2024/04/08 05:11:43;;;;;;;14.55;7.70;;;;;;;10.10;100.00;101111.41;4973678;28;20077;-85
2024/04/08 05:14:08;;;;;;;14.82;6.68;;;;;;;10.07;100.00;101117.81;4974076;28;20062;-75
2024/04/08 05:16:34;;;;;;;12.25;6.60;;;;;;;10.07;100.00;101122.31;4973636;28;20472;-76
2024/04/08 05:18:59;;;;;;;14.73;6.32;;;;;;;10.03;100.00;101121.72;4973886;28;20031;-75
2024/04/08 05:21:24;;;;;;;14.27;7.00;;;;;;;10.02;100.00;101116.53;4973920;28;20042;-75
2024/04/08 05:23:50;;;;;;;14.65;6.80;;;;;;;9.97;100.00;101114.28;4975595;28;20464;-75
2024/04/08 05:26:16;;;;;;;12.02;7.30;;;;;;;9.94;100.00;101111.88;4977743;28;20454;-75
2024/04/08 05:28:41;;;;;;;14.93;7.40;;;;;;;9.94;100.00;101111.88;4977708;28;20038;-75
2024/04/08 05:31:07;;;;;;;15.77;7.70;;;;;;;9.95;100.00;101102.06;4977468;28;20027;-75
2024/04/08 05:33:32;;;;;;;14.60;7.47;;;;;;;9.95;100.00;101102.06;4977603;28;20041;-75
2024/04/08 05:35:57;;;;;;;14.73;6.55;;;;;;;9.93;100.00;101098.69;4977606;28;20122;-75
2024/04/08 05:38:24;;;;;;;13.10;7.18;;;;;;;9.91;100.00;101103.28;4977707;28;20039;-75
2024/04/08 05:40:50;;;;;;;13.30;7.00;;;;;;;9.91;100.00;101101.47;4977505;28;20042;-75
2024/04/08 05:43:15;;;;;;;14.75;7.82;;;;;;;10.00;100.00;101111.34;4977220;28;20039;-75
2024/04/08 05:45:41;;;;;;;13.40;8.35;;;;;;;10.13;100.00;101111.16;4977440;28;20042;-75
2024/04/08 05:48:07;;;;;;;15.50;8.25;;;;;;;10.27;100.00;101117.13;4977703;28;20054;-75
2024/04/08 05:50:33;;;;;;;15.82;9.52;;;;;;;10.43;100.00;101122.84;4975879;28;20039;-75
2024/04/08 05:52:59;;;;;;;12.73;8.25;;;;;;;10.61;100.00;101127.56;4977060;28;20077;-75
2024/04/08 05:55:24;;;;;;;18.08;8.52;;;;;;;10.75;100.00;101130.72;4976717;28;20081;-75
2024/04/08 05:57:50;;;;;;;17.38;8.75;;;;;;;10.90;100.00;101122.38;4976747;28;20067;-76
2024/04/08 06:00:16;;;;;;;15.20;8.68;;;;;;;11.08;100.00;101130.56;4977518;28;20110;-75
2024/04/08 06:02:42;;;;;;;15.48;8.98;;;;;;;11.22;100.00;101127.50;4960159;28;20045;-75
2024/04/08 06:05:08;;;;;;;18.52;9.25;;;;;;;11.34;100.00;101130.06;4976778;28;20452;-75
2024/04/08 06:07:34;;;;;;;11.38;8.30;;;;;;;11.42;100.00;101127.56;4977000;28;20361;-75
2024/04/08 06:09:59;;;;;;;10.68;8.23;;;;;;;11.49;100.00;101117.19;4975312;28;20038;-76
2024/04/08 06:12:25;;;;;;;12.25;8.68;;;;;;;11.53;100.00;101121.28;4977434;28;20117;-76
2024/04/08 06:14:51;;;;;;;13.43;8.23;;;;;;;11.58;100.00;101119.03;4975616;28;20038;-75
2024/04/08 06:17:16;;;;;;;13.43;9.05;;;;;;;11.68;100.00;101129.72;4976840;28;20062;-74
2024/04/08 06:19:42;;;;;;;18.33;10.07;;;;;;;11.80;100.00;101139.25;4976664;28;20518;-76
2024/04/08 06:22:07;;;;;;;17.33;9.40;;;;;;;11.98;100.00;101142.91;4977095;28;20054;-75
2024/04/08 06:24:33;;;;;;;13.25;8.73;;;;;;;12.17;100.00;101135.91;4976831;28;20035;-75
2024/04/08 06:26:59;;;;;;;12.90;8.38;;;;;;;12.36;100.00;101132.38;4975234;28;20035;-76
2024/04/08 06:29:24;;;;;;;11.35;7.63;;;;;;;12.58;100.00;101131.16;4975966;28;20031;-76
2024/04/08 06:31:49;;;;;;;13.93;7.35;;;;;;;12.77;100.00;101127.59;4976791;28;20066;-73
2024/04/08 06:34:15;;;;;;;12.07;6.72;;;;;;;12.96;100.00;101118.69;4976100;28;20031;-74
2024/04/08 06:36:40;;;;;;;12.73;6.07;;;;;;;12.96;100.00;101105.31;4974554;28;20031;-73
2024/04/08 06:39:06;;;;;;;11.63;6.28;;;;;;;12.96;100.00;101099.97;4976427;28;20077;-75
2024/04/08 06:41:34;;;;;;;10.52;6.68;;;;;;;12.91;100.00;101093.41;4976190;28;20095;-73
2024/04/08 06:43:59;;;;;;;12.70;6.18;;;;;;;12.86;100.00;101093.84;4974801;28;20031;-73
2024/04/08 06:46:25;;;;;;;10.75;7.00;;;;;;;12.84;100.00;101095.84;4976858;28;20039;-73
2024/04/08 06:48:50;;;;;;;9.25;5.68;;;;;;;12.81;100.00;101086.28;4976406;28;20417;-73
2024/04/08 06:51:15;;;;;;;7.65;5.70;;;;;;;12.83;100.00;101094.97;4976540;28;20097;-75
2024/04/08 06:53:41;;;;;;;9.48;5.88;;;;;;;12.82;100.00;101093.31;4976416;28;20047;-75
2024/04/08 06:56:06;;;;;;;11.32;5.53;;;;;;;12.90;100.00;101102.38;4976244;28;20057;-75
2024/04/08 06:58:32;;;;;;;13.02;5.45;;;;;;;12.96;100.00;101099.16;4976343;28;20042;-76
2024/04/08 07:00:57;;;;;;;13.18;5.90;;;;;;;12.99;100.00;101094.34;4976111;28;20031;-82
2024/04/08 07:03:23;;;;;;;12.02;5.75;;;;;;;13.08;100.00;101099.75;4975002;28;20046;-75
2024/04/08 07:05:48;;;;;;;9.77;4.90;;;;;;;13.13;100.00;101098.34;4974617;28;20035;-75
2024/04/08 07:08:16;;;;;;;12.07;4.70;;;;;;;13.16;100.00;101103.38;4975501;28;20070;-74
2024/04/08 07:10:44;;;;;;;7.82;4.88;;;;;;;13.20;100.00;101110.09;4976213;28;20038;-74
2024/04/08 07:13:09;;;;;;;8.68;4.85;;;;;;;13.29;100.00;101115.56;4975706;28;20035;-74
2024/04/08 07:15:35;;;;;;;7.20;4.65;;;;;;;13.33;100.00;101111.56;4975815;28;20046;-75
2024/04/08 07:18:00;;;;;;;9.95;5.03;;;;;;;13.37;100.00;101107.66;4975968;28;20031;-80
2024/04/08 07:20:25;;;;;;;6.97;4.78;;;;;;;13.45;100.00;101096.19;4975561;28;20035;-74
2024/04/08 07:22:51;;;;;;;10.27;4.88;;;;;;;13.63;100.00;101106.91;4991165;28;20118;-74
2024/04/08 07:25:16;;;;;;;7.28;4.75;;;;;;;13.72;100.00;101114.84;4975496;28;20093;-74
2024/04/08 07:27:42;;;;;;;7.45;4.38;;;;;;;13.85;100.00;101110.94;4975426;28;20038;-75
2024/04/08 07:30:07;;;;;;;10.93;4.80;;;;;;;13.88;100.00;101100.78;4974363;28;20126;-74
2024/04/08 07:32:33;;;;;;;10.25;4.93;;;;;;;13.88;100.00;101100.78;4975064;28;20537;-76
2024/04/08 07:34:58;;;;;;;6.80;4.35;;;;;;;13.92;100.00;101099.47;4975079;28;20484;-75
2024/04/08 07:37:25;;;;;;;9.95;4.38;;;;;;;13.96;100.00;101094.66;4974576;28;20390;-76
2024/04/08 07:39:51;;;;;;;6.43;4.40;;;;;;;13.99;100.00;101093.50;4974998;28;20222;-76
2024/04/08 07:42:16;;;;;;;9.13;4.47;;;;;;;14.07;100.00;101075.66;4974516;28;20035;-74
2024/04/08 07:44:41;;;;;;;8.43;4.63;;;;;;;14.15;100.00;101066.84;4975128;28;20483;-74
2024/04/08 07:47:07;;;;;;;9.65;4.53;;;;;;;14.16;100.00;101059.69;4974646;28;20444;-74
2024/04/08 07:49:32;;;;;;;12.48;4.70;;;;;;;14.26;100.00;101053.22;4974737;28;20101;-74
2024/04/08 07:51:57;;;;;;;8.20;4.45;;;;;;;14.39;100.00;101049.28;4975044;28;20062;-74
2024/04/08 07:54:23;;;;;;;11.68;4.40;;;;;;;14.49;100.00;101049.19;4974659;28;20129;-74
2024/04/08 07:56:48;;;;;;;7.60;3.78;;;;;;;14.56;100.00;101024.28;4973577;28;20070;-76
2024/04/08 07:59:14;;;;;;;7.20;4.10;;;;;;;14.68;100.00;101014.16;4974473;28;20468;-77
2024/04/08 08:01:39;;;;;;;8.98;4.18;;;;;;;14.74;100.00;101018.03;4974880;28;20113;-74
2024/04/08 08:04:04;;;;;;;7.65;4.35;;;;;;;14.90;100.00;101031.47;4975219;28;20452;-73
2024/04/08 08:06:30;;;;;;;11.48;4.35;;;;;;;15.01;100.00;101024.13;4974504;28;20042;-73
2024/04/08 08:08:55;;;;;;;12.63;4.90;;;;;;;15.18;100.00;101027.69;4974694;28;20066;-74
2024/04/08 08:11:20;;;;;;;6.47;3.97;;;;;;;15.49;100.00;101027.88;4973248;28;20038;-74
2024/04/08 08:13:46;;;;;;;8.38;4.10;;;;;;;15.91;100.00;101042.16;4974429;28;20039;-74
2024/04/08 08:16:11;;;;;;;8.25;4.15;;;;;;;16.13;100.00;101046.81;4973391;28;20038;-74
2024/04/08 08:18:37;;;;;;;8.85;4.10;;;;;;;16.24;100.00;101050.16;4975285;28;20035;-74
2024/04/08 08:21:02;;;;;;;8.70;4.60;;;;;;;16.38;100.00;101057.50;4974357;28;20408;-75
2024/04/08 08:23:28;;;;;;;8.50;4.47;;;;;;;16.45;100.00;101049.59;4974503;28;20034;-73
2024/04/08 08:25:56;;;;;;;7.28;4.35;;;;;;;16.54;100.00;101056.59;4974479;28;20456;-74
2024/04/08 08:28:22;;;;;;;10.55;4.03;;;;;;;16.52;100.00;101053.28;4974461;28;20023;-75
2024/04/08 08:30:47;;;;;;;5.80;3.30;;;;;;;16.61;100.00;101057.59;4974737;28;20038;-75
2024/04/08 08:33:12;;;;;;;6.20;3.65;;;;;;;16.62;100.00;101051.22;4974071;28;20518;-75
2024/04/08 08:35:38;;;;;;;10.98;3.75;;;;;;;16.75;100.00;101050.69;4974390;28;20057;-76
2024/04/08 08:38:03;;;;;;;12.65;4.60;;;;;;;16.90;100.00;101043.56;4973985;28;20046;-74
2024/04/08 08:40:31;;;;;;;8.52;4.47;;;;;;;17.00;100.00;101043.34;4974313;28;20368;-74
2024/04/08 08:42:57;;;;;;;14.40;4.60;;;;;;;17.15;100.00;101035.34;4957438;28;20185;-76
2024/04/08 08:45:22;;;;;;;10.80;5.05;;;;;;;17.18;100.00;101043.09;4974526;28;20511;-76
2024/04/08 08:47:48;;;;;;;10.43;4.68;;;;;;;17.34;100.00;101028.69;4974244;28;20506;-76
2024/04/08 08:50:14;;;;;;;7.15;4.95;;;;;;;17.67;100.00;101033.81;4973003;28;20075;-83
2024/04/08 08:52:40;;;;;;;10.80;5.43;;;;;;;17.71;100.00;101023.53;4974338;28;20173;-76
2024/04/08 08:55:05;;;;;;;10.77;5.30;;;;;;;17.80;100.00;101027.81;4972814;28;20356;-78
2024/04/08 08:57:33;;;;;;;6.15;4.63;;;;;;;17.91;100.00;101022.00;4972751;28;20034;-76
2024/04/08 09:00:00;;;;;;;8.02;5.32;;;;;;;18.18;100.00;101025.09;4977992;28;20113;-76
2024/04/08 09:02:26;;;;;;;9.05;5.18;;;;;;;18.77;100.00;101015.34;4978144;28;20045;-76
2024/04/08 09:04:52;;;;;;;9.20;5.40;;;;;;;19.80;100.00;101018.69;4977075;28;20030;-74
2024/04/08 09:07:18;;;;;;;7.60;4.43;;;;;;;20.81;100.00;101009.34;4978139;28;20111;-75
2024/04/08 09:09:54;;;;;;;9.55;4.75;;;;;;;21.47;100.00;101005.09;4978345;28;20447;-74
2024/04/08 09:12:20;;;;;;;8.57;4.95;;;;;;;20.92;100.00;101002.50;4977898;28;20396;-73
2024/04/08 09:14:51;;;;;;;10.18;4.75;;;;;;;20.49;100.00;101010.81;4978050;28;20039;-74
2024/04/08 09:17:17;;;;;;;7.75;4.68;;;;;;;19.99;100.00;101006.38;4977463;28;20030;-73
2024/04/08 09:19:43;;;;;;;6.50;4.25;;;;;;;19.54;100.00;101016.56;4977811;28;20034;-74
2024/04/08 09:22:08;;;;;;;8.63;5.22;;;;;;;19.29;100.00;101008.88;4977437;28;20054;-72
2024/04/08 09:24:34;;;;;;;8.30;4.57;;;;;;;18.59;100.00;101029.22;4977499;28;20069;-73
2024/04/08 09:27:01;;;;;;;8.02;4.30;;;;;;;18.31;100.00;101029.88;4973603;28;20026;-77
2024/04/08 09:29:26;;;;;;;12.40;4.13;;;;;;;18.03;100.00;101025.09;4974068;28;20110;-72
2024/04/08 09:31:52;;;;;;;6.85;4.00;;;;;;;17.82;100.00;101015.00;4975910;28;20046;-73
2024/04/08 09:34:18;;;;;;;9.23;4.03;;;;;;;17.63;100.00;101021.75;4976292;28;20068;-73
2024/04/08 09:36:44;;;;;;;5.88;3.60;;;;;;;17.52;100.00;101012.25;4976623;28;20109;-72
2024/04/08 09:39:12;;;;;;;7.30;3.55;;;;;;;17.50;100.00;101016.16;4976037;28;20093;-72
2024/04/08 09:41:38;;;;;;;7.13;3.20;;;;;;;17.51;100.00;101020.50;4976847;28;20027;-72
2024/04/08 09:44:07;;;;;;;8.73;3.25;;;;;;;17.33;100.00;101020.78;4977412;28;20121;-73
2024/04/08 09:46:34;;;;;;;4.75;2.60;;;;;;;17.12;100.00;101016.91;4976073;28;20039;-74
2024/04/08 09:48:59;;;;;;;8.13;3.10;;;;;;;17.16;100.00;101006.63;4976249;28;20031;-74
2024/04/08 09:51:26;;;;;;;6.65;2.60;;;;;;;17.08;100.00;101012.91;4977546;28;20041;-74
2024/04/08 09:53:53;;;;;;;6.47;2.85;;;;;;;16.98;100.00;101012.28;4976990;28;20089;-74
2024/04/08 09:56:21;;;;;;;6.70;3.30;;;;;;;16.74;100.00;101017.56;4977976;28;20113;-74
2024/04/08 09:59:19;;;;;;;5.05;2.90;;;;;;;16.64;100.00;101008.06;4977468;28;20031;-74
2024/04/08 10:01:45;;;;;;;10.27;3.60;;;;;;;16.48;100.00;101020.56;4974501;28;20057;-74
2024/04/08 10:04:22;;;;;;;6.75;3.55;;;;;;;16.35;100.00;101021.09;4977628;28;20053;-75
2024/04/08 10:06:49;;;;;;;8.27;3.80;;;;;;;16.30;100.00;101022.63;4976988;28;20030;-73
2024/04/08 10:09:16;;;;;;;5.78;3.40;;;;;;;16.40;100.00;101015.19;4977251;28;20042;-74
2024/04/08 10:11:46;;;;;;;9.05;3.17;;;;;;;16.50;100.00;101010.47;4976878;28;20038;-74
2024/04/08 10:14:15;;;;;;;11.27;2.80;;;;;;;16.53;100.00;101011.97;4976668;28;20533;-74
2024/04/08 10:16:41;;;;;;;4.95;2.92;;;;;;;16.64;100.00;101008.06;4977325;28;20117;-74
2024/04/08 10:19:07;;;;;;;4.97;2.60;;;;;;;16.86;100.00;101017.19;4976870;28;20472;-74
2024/04/08 10:21:32;;;;;;;5.22;2.47;;;;;;;17.17;100.00;101011.84;4977160;28;20070;-74
2024/04/08 10:23:58;;;;;;;3.58;2.30;;;;;;;17.38;100.00;101021.94;4977323;28;20479;-74
2024/04/08 10:26:26;;;;;;;6.53;2.75;;;;;;;17.58;100.00;101014.19;4976813;28;20046;-74
2024/04/08 10:28:51;;;;;;;6.25;2.47;;;;;;;18.01;100.00;101007.47;4976536;28;20518;-73
2024/04/08 10:31:26;;;;;;;3.63;2.40;;;;;;;18.00;100.00;101005.78;4976652;28;20034;-73
2024/04/08 10:33:52;;;;;;;3.40;2.00;;;;;;;17.79;100.00;101005.47;4975464;28;20117;-75
2024/04/08 10:36:17;;;;;;;7.03;2.42;;;;;;;18.13;100.00;100997.91;4976623;28;20106;-75
2024/04/08 10:38:42;;;;;;;6.03;2.50;;;;;;;18.20;100.00;101000.69;4976423;28;20126;-76
2024/04/08 10:41:08;;;;;;;5.38;2.28;;;;;;;18.25;100.00;100993.72;4976871;28;20073;-76
2024/04/08 10:43:37;;;;;;;5.60;2.25;;;;;;;17.96;100.00;100987.31;4976469;28;20030;-76
2024/04/08 10:46:03;;;;;;;4.60;2.47;;;;;;;17.72;100.00;100985.69;4975172;28;20065;-76
2024/04/08 10:48:29;;;;;;;7.95;2.33;;;;;;;17.56;100.00;100985.84;4975283;28;20026;-76
2024/04/08 10:50:55;;;;;;;7.53;2.17;;;;;;;17.31;100.00;100985.19;4975196;28;20360;-76
2024/04/08 10:53:20;;;;;;;3.17;2.20;;;;;;;17.24;100.00;100988.59;4975897;28;20058;-76
2024/04/08 10:55:46;;;;;;;6.05;2.22;;;;;;;17.35;100.00;100979.28;4976170;28;20055;-76
2024/04/08 10:58:11;;;;;;;7.40;2.10;;;;;;;17.62;100.00;100960.88;4976454;28;20423;-76
2024/04/08 11:00:37;;;;;;;5.50;2.60;;;;;;;17.88;100.00;100960.44;4974656;28;20035;-77
2024/04/08 11:03:03;;;;;;;6.32;2.00;;;;;;;18.23;100.00;100957.25;4976778;28;20049;-76
2024/04/08 11:05:29;;;;;;;4.60;2.20;;;;;;;18.45;100.00;100953.59;4975861;28;20046;-76
2024/04/08 11:07:58;;;;;;;4.25;1.88;;;;;;;18.78;100.00;100961.25;4976097;28;20030;-77
2024/04/08 11:10:23;;;;;;;5.50;2.05;;;;;;;19.00;100.00;100964.84;4975711;28;20035;-76